Time;durP1;ratioP1;P1;durP2;ratioP2;P2;SDS_P1;SDS_P2;PMS_P1;PMS_P2;Temp;Humidity;BMP_temperature;BMP_pressure;BME280_temperature;BME280_humidity;BME280_pressure;Samples;Min_cycle;Max_cycle;Signal;HPM_P1;HPM_P2
2022/06/03 00:01:34;;;;;;;8.82;5.03;;;;;;;;;;5107249;28;20039;-68
2022/06/03 00:04:03;;;;;;;9.02;4.22;;;;;;;;;;5107381;28;20114;-68
2022/06/03 00:06:39;;;;;;;7.40;4.40;;;;;;;;;;5104205;28;20102;-68
2022/06/03 00:09:23;;;;;;;8.15;4.03;;;;;;;;;;5106054;28;20038;-68
2022/06/03 00:11:54;;;;;;;7.32;4.68;;;;;;;;;;5113563;28;20027;-68
2022/06/03 00:14:35;;;;;;;6.90;4.35;;;;;;;;;;5102355;28;20035;-68
2022/06/03 00:17:26;;;;;;;7.35;4.60;;;;;;;;;;5098345;28;20034;-68
2022/06/03 00:19:58;;;;;;;8.63;4.32;;;;;;;;;;5074945;28;20922;-68
2022/06/03 00:22:38;;;;;;;8.57;4.85;;;;;;;;;;5106678;28;20035;-68
2022/06/03 00:25:21;;;;;;;12.02;5.50;;;;;;;;;;5101015;28;20040;-68
2022/06/03 00:27:58;;;;;;;8.05;4.68;;;;;;;;;;5097055;28;20085;-68
2022/06/03 00:30:33;;;;;;;7.50;4.45;;;;;;;;;;5103696;28;20506;-68
2022/06/03 00:33:06;;;;;;;7.97;4.68;;;;;;;;;;5104596;28;20034;-68
2022/06/03 00:35:50;;;;;;;8.30;4.63;;;;;;;;;;5108964;28;20040;-68
2022/06/03 00:38:15;;;;;;;10.10;4.55;;;;;;;;;;5103901;28;20365;-68
2022/06/03 00:40:41;;;;;;;9.30;4.65;;;;;;;;;;5101319;28;20035;-68
2022/06/03 00:43:09;;;;;;;12.90;5.18;;;;;;;;;;5103591;28;20034;-68
2022/06/03 00:45:37;;;;;;;11.30;5.15;;;;;;;;;;5111301;28;20040;-68
2022/06/03 00:48:21;;;;;;;7.80;4.90;;;;;;;;;;5110524;28;20067;-68
2022/06/03 00:50:46;;;;;;;9.13;4.88;;;;;;;;;;5115009;28;20084;-68
2022/06/03 00:53:12;;;;;;;10.57;5.28;;;;;;;;;;5105981;28;20024;-68
2022/06/03 00:55:56;;;;;;;8.55;5.18;;;;;;;;;;5111264;28;20520;-68
2022/06/03 00:58:24;;;;;;;8.32;4.30;;;;;;;;;;5108577;28;20031;-68
2022/06/03 01:01:00;;;;;;;8.43;4.57;;;;;;;;;;5109944;28;20031;-68
2022/06/03 01:03:32;;;;;;;9.90;4.80;;;;;;;;;;5110757;28;20028;-68
2022/06/03 01:06:07;;;;;;;9.18;4.60;;;;;;;;;;5106873;28;20540;-68
2022/06/03 01:08:39;;;;;;;6.22;4.38;;;;;;;;;;5102208;28;20032;-68
2022/06/03 01:11:07;;;;;;;8.52;5.13;;;;;;;;;;5104073;28;20028;-68
2022/06/03 01:13:58;;;;;;;6.57;4.47;;;;;;;;;;5108398;28;20028;-68
2022/06/03 01:16:23;;;;;;;10.77;4.45;;;;;;;;;;5076844;28;20520;-68
2022/06/03 01:18:54;;;;;;;8.40;4.15;;;;;;;;;;5108470;28;20056;-68
2022/06/03 01:21:38;;;;;;;8.23;4.78;;;;;;;;;;5115968;28;20106;-68
2022/06/03 01:24:22;;;;;;;10.57;4.57;;;;;;;;;;5103061;28;20364;-68
2022/06/03 01:27:06;;;;;;;7.57;4.57;;;;;;;;;;5109653;28;20503;-68
2022/06/03 01:29:49;;;;;;;8.35;4.35;;;;;;;;;;5103658;28;20383;-68
2022/06/03 01:32:33;;;;;;;8.18;4.72;;;;;;;;;;5109971;28;20486;-67
2022/06/03 01:35:16;;;;;;;10.27;4.53;;;;;;;;;;5106765;28;20031;-68
2022/06/03 01:37:47;;;;;;;9.57;4.60;;;;;;;;;;5101472;28;20040;-68
2022/06/03 01:40:35;;;;;;;8.07;4.05;;;;;;;;;;5112635;28;20023;-68
2022/06/03 01:43:08;;;;;;;8.05;4.72;;;;;;;;;;5106170;28;20115;-68
2022/06/03 01:45:52;;;;;;;6.97;4.32;;;;;;;;;;5103673;28;20040;-68
2022/06/03 01:48:38;;;;;;;8.57;4.45;;;;;;;;;;5112793;28;20098;-68
2022/06/03 01:51:22;;;;;;;9.38;4.47;;;;;;;;;;5107890;28;20103;-67
2022/06/03 01:54:06;;;;;;;7.63;4.50;;;;;;;;;;5098972;28;20388;-68
2022/06/03 01:56:44;;;;;;;7.43;3.97;;;;;;;;;;5114750;28;20584;-68
2022/06/03 01:59:09;;;;;;;9.30;4.57;;;;;;;;;;5102210;28;20085;-68
2022/06/03 02:01:53;;;;;;;10.85;5.07;;;;;;;;;;5104031;28;20106;-67
2022/06/03 02:04:37;;;;;;;8.50;4.55;;;;;;;;;;5107241;28;20031;-68
2022/06/03 02:07:14;;;;;;;10.35;4.97;;;;;;;;;;5103576;28;20040;-68
2022/06/03 02:09:49;;;;;;;8.02;4.50;;;;;;;;;;5109119;28;20023;-68
2022/06/03 02:12:32;;;;;;;9.05;4.78;;;;;;;;;;5106834;28;20517;-67
2022/06/03 02:15:04;;;;;;;8.25;5.18;;;;;;;;;;5106738;28;20031;-68
2022/06/03 02:17:38;;;;;;;12.75;5.38;;;;;;;;;;5110770;28;20375;-68
2022/06/03 02:20:15;;;;;;;13.00;6.00;;;;;;;;;;5107278;28;20031;-68
2022/06/03 02:22:58;;;;;;;7.82;4.75;;;;;;;;;;5109406;28;20381;-68
2022/06/03 02:25:34;;;;;;;10.63;5.32;;;;;;;;;;5104739;28;20074;-68
2022/06/03 02:28:08;;;;;;;10.10;5.53;;;;;;;;;;5097995;28;20078;-68
2022/06/03 02:30:34;;;;;;;;;;;;;;;;;;5098562;28;20527;-68
2022/06/03 02:32:59;;;;;;;7.57;4.10;;;;;;;;;;5105138;28;19995;-68
2022/06/03 02:35:27;;;;;;;7.22;4.07;;;;;;;;;;5102647;28;21704;-68
2022/06/03 02:38:24;;;;;;;9.43;5.22;;;;;;;;;;5110930;28;20039;-68
2022/06/03 02:40:59;;;;;;;9.85;4.32;;;;;;;;;;5041957;28;20088;-68
2022/06/03 02:43:28;;;;;;;8.23;4.40;;;;;;;;;;5112673;28;20028;-68
2022/06/03 02:46:12;;;;;;;8.45;4.55;;;;;;;;;;5109741;28;20122;-67
2022/06/03 02:48:37;;;;;;;8.65;4.43;;;;;;;;;;5103264;28;20032;-67
2022/06/03 02:51:41;;;;;;;8.13;4.75;;;;;;;;;;5106122;28;20493;-68
2022/06/03 02:54:18;;;;;;;9.40;4.80;;;;;;;;;;5022364;28;20037;-67
2022/06/03 02:56:47;;;;;;;9.93;5.05;;;;;;;;;;5012824;28;20389;-67
2022/06/03 02:59:18;;;;;;;9.00;5.25;;;;;;;;;;5075047;28;20134;-67
2022/06/03 03:01:44;;;;;;;10.95;5.07;;;;;;;;;;5103886;28;20107;-67
2022/06/03 03:04:17;;;;;;;8.02;4.93;;;;;;;;;;5102450;28;20494;-68
2022/06/03 03:06:50;;;;;;;8.95;4.90;;;;;;;;;;5103040;28;20131;-68
2022/06/03 03:09:15;;;;;;;7.60;4.43;;;;;;;;;;5101426;28;20387;-68
2022/06/03 03:11:43;;;;;;;8.73;4.43;;;;;;;;;;5108344;28;20028;-68
2022/06/03 03:14:26;;;;;;;10.43;4.50;;;;;;;;;;5102738;28;20456;-68
2022/06/03 03:17:08;;;;;;;8.60;4.60;;;;;;;;;;5101649;28;20386;-68
2022/06/03 03:19:36;;;;;;;6.30;4.15;;;;;;;;;;5101101;28;20176;-68
2022/06/03 03:22:21;;;;;;;9.90;4.32;;;;;;;;;;5106400;28;20472;-68
2022/06/03 03:25:04;;;;;;;7.47;4.72;;;;;;;;;;5105244;28;20023;-68
2022/06/03 03:28:02;;;;;;;6.30;4.20;;;;;;;;;;5099032;28;20068;-68
2022/06/03 03:30:42;;;;;;;8.75;5.15;;;;;;;;;;5064130;28;20064;-68
2022/06/03 03:33:18;;;;;;;8.23;4.68;;;;;;;;;;5105634;28;20565;-68
2022/06/03 03:35:49;;;;;;;9.93;4.50;;;;;;;;;;5106081;28;20043;-68
2022/06/03 03:38:35;;;;;;;6.32;4.03;;;;;;;;;;5102532;28;20031;-68
2022/06/03 03:41:19;;;;;;;7.20;4.38;;;;;;;;;;5101995;28;20027;-68
2022/06/03 03:43:50;;;;;;;9.07;3.78;;;;;;;;;;5107937;28;20076;-68
2022/06/03 03:46:33;;;;;;;6.60;4.10;;;;;;;;;;5100871;28;20075;-67
2022/06/03 03:49:14;;;;;;;7.57;4.28;;;;;;;;;;5106677;28;20482;-68
2022/06/03 03:51:51;;;;;;;8.35;4.70;;;;;;;;;;5101740;28;20024;-68
2022/06/03 03:54:35;;;;;;;7.68;4.05;;;;;;;;;;5099484;28;20051;-68
2022/06/03 03:57:00;;;;;;;7.28;3.95;;;;;;;;;;5110778;28;20019;-67
2022/06/03 03:59:44;;;;;;;7.60;4.35;;;;;;;;;;5099211;28;20046;-68
2022/06/03 04:02:28;;;;;;;6.78;3.88;;;;;;;;;;5108349;28;20031;-68
2022/06/03 04:05:09;;;;;;;6.90;4.43;;;;;;;;;;5106561;28;20027;-68
2022/06/03 04:07:51;;;;;;;6.47;4.15;;;;;;;;;;5098847;28;20023;-68
2022/06/03 04:10:35;;;;;;;6.47;3.92;;;;;;;;;;5105719;28;20387;-68
2022/06/03 04:13:03;;;;;;;6.10;3.78;;;;;;;;;;5098750;28;20418;-68
2022/06/03 04:15:49;;;;;;;6.95;3.95;;;;;;;;;;5085808;28;20020;-68
2022/06/03 04:18:36;;;;;;;6.50;3.88;;;;;;;;;;5106197;28;20028;-68
2022/06/03 04:21:20;;;;;;;7.15;4.18;;;;;;;;;;5102367;28;20033;-68
2022/06/03 04:23:54;;;;;;;6.95;3.90;;;;;;;;;;5106143;28;20027;-68
2022/06/03 04:26:32;;;;;;;6.53;3.80;;;;;;;;;;5108888;28;20032;-68
2022/06/03 04:29:39;;;;;;;7.60;3.95;;;;;;;;;;5100941;28;20043;-68
2022/06/03 04:32:04;;;;;;;10.50;3.67;;;;;;;;;;5104666;28;20071;-68
2022/06/03 04:34:49;;;;;;;8.02;4.20;;;;;;;;;;5097903;28;20115;-68
2022/06/03 04:37:29;;;;;;;6.05;3.78;;;;;;;;;;5106425;28;20055;-68
2022/06/03 04:40:05;;;;;;;6.93;3.90;;;;;;;;;;5103869;28;20047;-68
2022/06/03 04:42:33;;;;;;;5.32;3.47;;;;;;;;;;5101787;28;20069;-68
2022/06/03 04:45:07;;;;;;;8.88;3.60;;;;;;;;;;5102085;28;20039;-68
2022/06/03 04:47:32;;;;;;;;;;;;;;;;;;5109235;28;20119;-68
2022/06/03 04:49:57;;;;;;;5.55;3.35;;;;;;;;;;5107805;28;19991;-68
2022/06/03 04:52:41;;;;;;;6.03;3.70;;;;;;;;;;5104873;28;20304;-68
2022/06/03 04:55:12;;;;;;;6.15;3.47;;;;;;;;;;5105811;28;20040;-68
2022/06/03 04:57:56;;;;;;;4.72;3.30;;;;;;;;;;5111057;28;20028;-68
2022/06/03 05:00:39;;;;;;;6.40;3.72;;;;;;;;;;5105618;28;20028;-68
2022/06/03 05:03:05;;;;;;;4.53;3.10;;;;;;;;;;5107645;28;20036;-68
2022/06/03 05:05:49;;;;;;;8.20;3.47;;;;;;;;;;5105802;28;20439;-68
2022/06/03 05:08:23;;;;;;;7.47;3.47;;;;;;;;;;5099494;28;20031;-68
2022/06/03 05:10:52;;;;;;;4.88;3.28;;;;;;;;;;5095757;28;20028;-68
2022/06/03 05:13:23;;;;;;;4.78;2.97;;;;;;;;;;5108520;28;20032;-68
2022/06/03 05:16:23;;;;;;;6.13;3.00;;;;;;;;;;5098958;28;20034;-68
2022/06/03 05:18:51;;;;;;;4.85;3.10;;;;;;;;;;5007813;28;20072;-68
2022/06/03 05:21:35;;;;;;;5.15;3.17;;;;;;;;;;5089680;28;20053;-68
2022/06/03 05:24:00;;;;;;;5.95;2.85;;;;;;;;;;5103772;28;20032;-68
2022/06/03 05:26:36;;;;;;;4.75;2.92;;;;;;;;;;5114547;28;20485;-68
2022/06/03 05:29:11;;;;;;;4.78;3.00;;;;;;;;;;5104517;28;20028;-68
2022/06/03 05:31:58;;;;;;;3.88;2.47;;;;;;;;;;5105862;28;20547;-68
2022/06/03 05:34:51;;;;;;;5.32;2.78;;;;;;;;;;5109159;28;20031;-68
2022/06/03 05:37:22;;;;;;;4.40;2.92;;;;;;;;;;5107149;28;20071;-68
2022/06/03 05:39:47;;;;;;;4.05;2.75;;;;;;;;;;5108213;28;20038;-68
2022/06/03 05:42:31;;;;;;;4.35;2.92;;;;;;;;;;5108770;28;20020;-68
2022/06/03 05:45:02;;;;;;;4.88;2.72;;;;;;;;;;5109556;28;20038;-68
2022/06/03 05:47:40;;;;;;;5.82;3.25;;;;;;;;;;5107813;28;20028;-68
2022/06/03 05:50:08;;;;;;;4.78;2.10;;;;;;;;;;5101767;28;20441;-68
2022/06/03 05:52:41;;;;;;;5.32;2.50;;;;;;;;;;5101049;28;20463;-68
2022/06/03 05:55:07;;;;;;;3.80;2.37;;;;;;;;;;5107918;28;20028;-68
2022/06/03 05:57:35;;;;;;;4.15;2.20;;;;;;;;;;5112424;28;20279;-68
2022/06/03 06:00:26;;;;;;;6.43;2.30;;;;;;;;;;5084930;28;20383;-68
2022/06/03 06:02:57;;;;;;;3.03;1.92;;;;;;;;;;5111068;28;20103;-68
2022/06/03 06:05:22;;;;;;;3.88;1.70;;;;;;;;;;5110805;28;20390;-68
2022/06/03 06:07:57;;;;;;;3.83;2.20;;;;;;;;;;5103934;28;20098;-68
2022/06/03 06:10:34;;;;;;;5.40;2.00;;;;;;;;;;5112967;28;20051;-68
2022/06/03 06:13:22;;;;;;;3.20;1.90;;;;;;;;;;5109870;28;20097;-68
2022/06/03 06:16:00;;;;;;;4.10;1.73;;;;;;;;;;5101278;28;20020;-68
2022/06/03 06:18:30;;;;;;;3.13;1.70;;;;;;;;;;5097683;28;20038;-68
2022/06/03 06:21:03;;;;;;;2.80;1.60;;;;;;;;;;5109360;28;20019;-68
2022/06/03 06:23:31;;;;;;;4.55;1.92;;;;;;;;;;5099705;28;20488;-68
2022/06/03 06:26:11;;;;;;;3.50;1.80;;;;;;;;;;5104201;28;20143;-68
2022/06/03 06:28:36;;;;;;;3.67;2.00;;;;;;;;;;5101376;28;20103;-68
2022/06/03 06:31:28;;;;;;;3.03;1.80;;;;;;;;;;5104152;28;20154;-68
2022/06/03 06:33:53;;;;;;;2.53;1.60;;;;;;;;;;5100719;28;20040;-68
2022/06/03 06:36:38;;;;;;;4.57;1.80;;;;;;;;;;5105123;28;20059;-68
2022/06/03 06:39:07;;;;;;;2.92;1.85;;;;;;;;;;5099770;28;20053;-68
2022/06/03 06:41:35;;;;;;;3.88;1.60;;;;;;;;;;5110612;28;20489;-68
2022/06/03 06:44:12;;;;;;;4.93;1.60;;;;;;;;;;5102666;28;20028;-68
2022/06/03 06:46:59;;;;;;;3.42;1.50;;;;;;;;;;5105529;28;20060;-68
2022/06/03 06:49:24;;;;;;;3.35;1.60;;;;;;;;;;5108118;28;20102;-69
2022/06/03 06:52:09;;;;;;;2.67;1.40;;;;;;;;;;5111066;28;20070;-68
2022/06/03 06:55:07;;;;;;;2.28;1.38;;;;;;;;;;5107253;28;20027;-69
2022/06/03 06:57:34;;;;;;;2.42;1.55;;;;;;;;;;5053394;28;20055;-68
2022/06/03 07:00:18;;;;;;;2.90;1.60;;;;;;;;;;5115169;28;20023;-68
2022/06/03 07:02:46;;;;;;;2.65;1.35;;;;;;;;;;5105719;28;20042;-69
2022/06/03 07:05:14;;;;;;;3.08;1.63;;;;;;;;;;5110858;28;20046;-68
2022/06/03 07:07:45;;;;;;;2.97;1.50;;;;;;;;;;5115049;28;20020;-68
2022/06/03 07:10:15;;;;;;;3.17;1.50;;;;;;;;;;5114633;28;20031;-68
2022/06/03 07:12:40;;;;;;;2.35;1.45;;;;;;;;;;5114636;28;20039;-68
2022/06/03 07:15:09;;;;;;;2.95;1.90;;;;;;;;;;5108411;28;20432;-69
2022/06/03 07:20:19;;;;;;;4.68;1.92;;;;;;;;;;5106819;28;20064;-68
2022/06/03 07:22:51;;;;;;;4.65;1.90;;;;;;;;;;5110172;28;20027;-68
2022/06/03 07:25:23;;;;;;;3.55;2.05;;;;;;;;;;5113568;28;20040;-68
2022/06/03 07:27:48;;;;;;;2.70;1.60;;;;;;;;;;5106660;28;20024;-69
2022/06/03 07:30:19;;;;;;;3.13;1.80;;;;;;;;;;5107515;28;20036;-68
2022/06/03 07:32:47;;;;;;;3.20;1.83;;;;;;;;;;5111896;28;20244;-68
2022/06/03 07:35:12;;;;;;;3.10;1.90;;;;;;;;;;5105622;28;20065;-68
2022/06/03 07:37:42;;;;;;;3.50;1.88;;;;;;;;;;5114372;28;20066;-69
2022/06/03 07:40:24;;;;;;;5.60;2.40;;;;;;;;;;5113623;28;20023;-68
2022/06/03 07:42:52;;;;;;;4.78;2.95;;;;;;;;;;5101050;28;20027;-69
2022/06/03 07:45:26;;;;;;;4.82;3.13;;;;;;;;;;5108347;28;20367;-68
2022/06/03 07:47:53;;;;;;;6.18;3.47;;;;;;;;;;5114122;28;20106;-69
2022/06/03 07:50:21;;;;;;;5.03;3.08;;;;;;;;;;5111920;28;20036;-69
2022/06/03 07:52:57;;;;;;;4.82;3.40;;;;;;;;;;5111797;28;20119;-69
2022/06/03 07:55:24;;;;;;;5.47;3.60;;;;;;;;;;5103642;28;20459;-67
2022/06/03 07:57:51;;;;;;;6.03;4.25;;;;;;;;;;5113989;28;20032;-67
2022/06/03 08:00:18;;;;;;;6.18;3.92;;;;;;;;;;5111990;28;20023;-67
2022/06/03 08:02:43;;;;;;;7.40;4.53;;;;;;;;;;5113675;28;20054;-67
2022/06/03 08:05:12;;;;;;;7.53;4.32;;;;;;;;;;5107263;28;20464;-68
2022/06/03 08:13:08;;;;;;;6.15;3.80;;;;;;;;;;5107773;28;20108;-67
2022/06/03 08:15:35;;;;;;;7.90;4.05;;;;;;;;;;5113048;28;20467;-67
2022/06/03 08:18:02;;;;;;;6.13;4.20;;;;;;;;;;5109845;28;20072;-68
2022/06/03 08:20:29;;;;;;;7.70;3.83;;;;;;;;;;5107010;28;20364;-68
2022/06/03 08:22:54;;;;;;;5.80;3.97;;;;;;;;;;5113052;28;20116;-68
2022/06/03 08:25:24;;;;;;;6.70;4.30;;;;;;;;;;5106386;28;20094;-69
2022/06/03 08:27:49;;;;;;;7.82;4.53;;;;;;;;;;5097256;28;20098;-68
2022/06/03 08:30:19;;;;;;;6.45;4.15;;;;;;;;;;5109084;28;20059;-68
2022/06/03 08:32:47;;;;;;;9.20;5.05;;;;;;;;;;5112563;28;20031;-68
2022/06/03 08:35:14;;;;;;;8.57;4.20;;;;;;;;;;5113377;28;20043;-68
2022/06/03 08:37:42;;;;;;;7.53;4.22;;;;;;;;;;5110081;28;20032;-68
2022/06/03 08:40:21;;;;;;;6.05;4.28;;;;;;;;;;5104189;28;20042;-69
2022/06/03 08:42:54;;;;;;;6.70;4.30;;;;;;;;;;5103928;28;20027;-68
2022/06/03 08:45:20;;;;;;;7.03;4.50;;;;;;;;;;5113579;28;20364;-69
2022/06/03 08:47:48;;;;;;;6.60;4.90;;;;;;;;;;5113272;28;20022;-68
2022/06/03 08:50:52;;;;;;;8.23;4.80;;;;;;;;;;5112032;28;20031;-68
2022/06/03 08:53:35;;;;;;;6.85;4.85;;;;;;;;;;5050559;28;20051;-69
2022/06/03 08:56:03;;;;;;;7.05;4.20;;;;;;;;;;5050262;28;20408;-68
2022/06/03 08:58:44;;;;;;;9.65;4.93;;;;;;;;;;5081175;28;20048;-69
2022/06/03 09:01:18;;;;;;;7.57;3.80;;;;;;;;;;5114825;28;20040;-69
2022/06/03 09:03:58;;;;;;;7.40;4.95;;;;;;;;;;5106191;28;20032;-68
2022/06/03 09:06:26;;;;;;;7.88;5.00;;;;;;;;;;5116560;28;20478;-69
2022/06/03 09:08:54;;;;;;;7.68;4.60;;;;;;;;;;5113052;28;20032;-68
2022/06/03 09:11:25;;;;;;;7.72;3.60;;;;;;;;;;5107577;28;20030;-68
2022/06/03 09:13:50;;;;;;;7.25;4.95;;;;;;;;;;5117091;28;20114;-68
2022/06/03 09:16:17;;;;;;;6.93;4.67;;;;;;;;;;5116862;28;20227;-68
2022/06/03 09:18:46;;;;;;;8.63;4.90;;;;;;;;;;5117041;28;20024;-69
2022/06/03 09:21:12;;;;;;;6.68;5.18;;;;;;;;;;5103786;28;20111;-69
2022/06/03 09:23:42;;;;;;;7.80;5.30;;;;;;;;;;5112966;28;20034;-68
2022/06/03 09:26:19;;;;;;;7.28;5.10;;;;;;;;;;5116443;28;20024;-68
2022/06/03 09:28:45;;;;;;;11.68;5.40;;;;;;;;;;5115702;28;20059;-68
2022/06/03 09:31:12;;;;;;;7.13;5.40;;;;;;;;;;5099548;28;20081;-69
2022/06/03 09:33:38;;;;;;;10.80;5.60;;;;;;;;;;5115879;28;20016;-68
2022/06/03 09:36:07;;;;;;;6.97;4.55;;;;;;;;;;5114870;28;20102;-68
2022/06/03 09:38:38;;;;;;;9.60;5.07;;;;;;;;;;5115826;28;20067;-68
2022/06/03 09:41:03;;;;;;;8.48;5.90;;;;;;;;;;5116435;28;20072;-68
2022/06/03 09:43:31;;;;;;;8.18;5.88;;;;;;;;;;5103155;28;20047;-69
2022/06/03 09:45:58;;;;;;;8.80;5.95;;;;;;;;;;5100126;28;20032;-68
2022/06/03 09:48:26;;;;;;;8.77;5.80;;;;;;;;;;5111642;28;20026;-68
2022/06/03 09:50:53;;;;;;;10.55;6.65;;;;;;;;;;5112691;28;20087;-69
2022/06/03 09:53:19;;;;;;;7.68;6.00;;;;;;;;;;5113629;28;20031;-69
2022/06/03 09:55:50;;;;;;;9.63;6.25;;;;;;;;;;5112615;28;20084;-69
2022/06/03 09:58:17;;;;;;;8.15;6.22;;;;;;;;;;5113529;28;20352;-69
2022/06/03 10:00:45;;;;;;;7.45;5.07;;;;;;;;;;5103414;28;20038;-69
2022/06/03 10:03:10;;;;;;;6.75;4.35;;;;;;;;;;5109810;28;20028;-68
2022/06/03 10:05:36;;;;;;;8.60;5.82;;;;;;;;;;5100541;28;20525;-68
2022/06/03 10:08:05;;;;;;;10.25;5.53;;;;;;;;;;5103047;28;20043;-69
2022/06/03 10:13:15;;;;;;;11.98;5.88;;;;;;;;;;5107032;28;20050;-68
2022/06/03 10:15:45;;;;;;;9.88;5.07;;;;;;;;;;5100646;28;20464;-69
2022/06/03 10:18:13;;;;;;;8.05;5.43;;;;;;;;;;5100017;28;20042;-68
2022/06/03 10:20:38;;;;;;;7.97;5.88;;;;;;;;;;5110687;28;20028;-68
2022/06/03 10:23:05;;;;;;;7.38;5.55;;;;;;;;;;5115308;28;20031;-68
2022/06/03 10:25:31;;;;;;;9.07;5.80;;;;;;;;;;5115856;28;20012;-69
2022/06/03 10:28:01;;;;;;;9.68;6.55;;;;;;;;;;5115528;28;20016;-68
2022/06/03 10:30:27;;;;;;;8.95;6.18;;;;;;;;;;5104654;28;20032;-68
2022/06/03 10:32:52;;;;;;;8.70;5.82;;;;;;;;;;5110435;28;20102;-68
2022/06/03 10:35:18;;;;;;;8.90;6.17;;;;;;;;;;5114617;28;20123;-68
2022/06/03 10:37:50;;;;;;;9.20;6.30;;;;;;;;;;5114714;28;20299;-68
2022/06/03 10:40:17;;;;;;;9.80;6.57;;;;;;;;;;5112651;28;20463;-68
2022/06/03 10:42:45;;;;;;;11.73;6.15;;;;;;;;;;5110750;28;20024;-68
2022/06/03 10:45:10;;;;;;;8.35;6.03;;;;;;;;;;5113410;28;20031;-70
2022/06/03 10:47:38;;;;;;;8.52;6.15;;;;;;;;;;5114674;28;20078;-69
2022/06/03 10:50:06;;;;;;;10.70;5.45;;;;;;;;;;5113779;28;20019;-70
2022/06/03 11:01:19;;;;;;;10.02;5.25;;;;;;;;;;5111228;28;20544;-69
2022/06/03 11:03:47;;;;;;;10.05;5.55;;;;;;;;;;5104571;28;20031;-69
2022/06/03 11:06:15;;;;;;;6.72;5.03;;;;;;;;;;5114558;28;20459;-69
2022/06/03 11:08:51;;;;;;;10.35;5.65;;;;;;;;;;5112036;28;20037;-69
2022/06/03 11:11:52;;;;;;;7.68;5.13;;;;;;;;;;5113941;28;20031;-69
2022/06/03 11:14:23;;;;;;;9.98;6.00;;;;;;;;;;5029748;28;20107;-69
2022/06/03 11:16:50;;;;;;;15.40;5.72;;;;;;;;;;5097950;28;20422;-68
2022/06/03 11:19:19;;;;;;;9.13;4.90;;;;;;;;;;5106129;28;20081;-69
2022/06/03 11:21:45;;;;;;;11.88;5.20;;;;;;;;;;5109032;28;20020;-69
2022/06/03 11:24:10;;;;;;;9.43;4.80;;;;;;;;;;5114722;28;20066;-69
2022/06/03 11:26:39;;;;;;;8.02;4.15;;;;;;;;;;5103674;28;20474;-68
2022/06/03 11:29:10;;;;;;;9.52;4.30;;;;;;;;;;5113929;28;20371;-69
2022/06/03 11:31:42;;;;;;;6.32;4.40;;;;;;;;;;5112000;28;20115;-68
2022/06/03 11:34:26;;;;;;;7.43;4.07;;;;;;;;;;5114153;28;20145;-68
2022/06/03 11:37:01;;;;;;;6.30;3.97;;;;;;;;;;5106885;28;20040;-68
2022/06/03 11:39:45;;;;;;;4.97;3.67;;;;;;;;;;5113994;28;20035;-68
2022/06/03 11:42:10;;;;;;;9.13;4.05;;;;;;;;;;5111763;28;20035;-68
2022/06/03 11:44:40;;;;;;;5.82;3.45;;;;;;;;;;5113765;28;20024;-68
2022/06/03 11:47:37;;;;;;;6.75;3.60;;;;;;;;;;5114101;28;20012;-69
2022/06/03 11:50:04;;;;;;;7.47;2.30;;;;;;;;;;5049585;28;20082;-69
2022/06/03 11:52:29;;;;;;;10.38;2.83;;;;;;;;;;5112489;28;20028;-68
2022/06/03 11:54:54;;;;;;;4.53;2.28;;;;;;;;;;5113781;28;20026;-69
2022/06/03 11:57:20;;;;;;;7.15;3.30;;;;;;;;;;5113968;28;20111;-69
2022/06/03 11:59:50;;;;;;;7.25;2.97;;;;;;;;;;5113931;28;20039;-68
2022/06/03 12:02:21;;;;;;;6.97;2.72;;;;;;;;;;5113710;28;20020;-69
2022/06/03 12:04:47;;;;;;;5.63;3.35;;;;;;;;;;5105377;28;20106;-69
2022/06/03 12:07:30;;;;;;;6.93;3.20;;;;;;;;;;5113278;28;20116;-69
2022/06/03 12:09:56;;;;;;;5.68;3.50;;;;;;;;;;5109709;28;20032;-69
2022/06/03 12:15:29;;;;;;;4.85;2.58;;;;;;;;;;5112427;28;20051;-69
2022/06/03 12:17:55;;;;;;;9.15;2.67;;;;;;;;;;5102052;28;20028;-69
2022/06/03 12:20:29;;;;;;;6.03;3.15;;;;;;;;;;5110991;28;20028;-69
2022/06/03 12:22:54;;;;;;;5.70;3.13;;;;;;;;;;5112154;28;20027;-69
2022/06/03 12:25:46;;;;;;;7.70;3.15;;;;;;;;;;5106538;28;20347;-69
2022/06/03 12:28:17;;;;;;;9.63;3.58;;;;;;;;;;5075039;28;20075;-69
2022/06/03 12:30:42;;;;;;;11.90;4.07;;;;;;;;;;5107945;28;20019;-68
2022/06/03 12:33:20;;;;;;;5.15;3.47;;;;;;;;;;5111111;28;20031;-68
2022/06/03 12:35:48;;;;;;;5.43;3.20;;;;;;;;;;5112111;28;20047;-69
2022/06/03 12:38:19;;;;;;;6.88;3.20;;;;;;;;;;5113469;28;20118;-69
2022/06/03 12:40:55;;;;;;;7.38;2.80;;;;;;;;;;5097740;28;20020;-68
2022/06/03 12:43:29;;;;;;;6.07;2.70;;;;;;;;;;5101585;28;20028;-69
2022/06/03 12:46:01;;;;;;;7.15;2.83;;;;;;;;;;5108696;28;20114;-68
2022/06/03 12:48:35;;;;;;;4.25;2.50;;;;;;;;;;5110539;28;20447;-68
2022/06/03 12:51:39;;;;;;;6.10;2.30;;;;;;;;;;5109045;28;20070;-69
2022/06/03 12:54:05;;;;;;;4.35;1.95;;;;;;;;;;5001862;28;21434;-69
2022/06/03 12:56:33;;;;;;;3.35;1.80;;;;;;;;;;5010719;28;20050;-69
2022/06/03 12:59:02;;;;;;;7.20;1.80;;;;;;;;;;5052961;28;20020;-69
2022/06/03 13:01:33;;;;;;;3.30;1.92;;;;;;;;;;5104717;28;20020;-68
2022/06/03 13:04:17;;;;;;;6.63;2.20;;;;;;;;;;5097138;28;20038;-69
2022/06/03 13:07:09;;;;;;;5.38;2.08;;;;;;;;;;5098629;28;20024;-69
2022/06/03 13:09:48;;;;;;;4.97;2.00;;;;;;;;;;5105898;28;20075;-69
2022/06/03 13:12:28;;;;;;;5.97;2.00;;;;;;;;;;5108379;28;20074;-69
2022/06/03 13:14:53;;;;;;;3.72;1.50;;;;;;;;;;5098818;28;20123;-69
2022/06/03 13:17:37;;;;;;;7.72;2.00;;;;;;;;;;5102892;28;20063;-69
2022/06/03 13:20:03;;;;;;;7.78;1.90;;;;;;;;;;5097791;28;20087;-69
2022/06/03 13:22:41;;;;;;;4.20;1.98;;;;;;;;;;5100816;28;20008;-68
2022/06/03 13:25:28;;;;;;;2.90;2.03;;;;;;;;;;5108348;28;20104;-69
2022/06/03 13:28:27;;;;;;;4.40;2.17;;;;;;;;;;5099740;28;20513;-69
2022/06/03 13:31:06;;;;;;;4.95;2.35;;;;;;;;;;5054580;28;20484;-69
2022/06/03 13:33:32;;;;;;;5.20;2.30;;;;;;;;;;5101480;28;20042;-68
2022/06/03 13:36:02;;;;;;;6.13;1.50;;;;;;;;;;5100958;28;20044;-69
2022/06/03 13:38:44;;;;;;;4.25;1.70;;;;;;;;;;5101481;28;20020;-69
2022/06/03 13:44:07;;;;;;;5.78;2.03;;;;;;;;;;5105292;28;20042;-69
2022/06/03 13:46:33;;;;;;;5.93;2.30;;;;;;;;;;5101493;28;20032;-69
2022/06/03 13:49:00;;;;;;;4.40;2.28;;;;;;;;;;5101681;28;20694;-69
2022/06/03 13:51:47;;;;;;;7.20;2.35;;;;;;;;;;5105591;28;20032;-68
2022/06/03 13:54:42;;;;;;;6.00;2.60;;;;;;;;;;5105900;28;20027;-69
2022/06/03 13:57:16;;;;;;;6.10;2.30;;;;;;;;;;5077770;28;20044;-69
2022/06/03 13:59:42;;;;;;;3.60;1.90;;;;;;;;;;5085329;28;20078;-69
2022/06/03 14:02:13;;;;;;;2.88;1.80;;;;;;;;;;5104149;28;20471;-69
2022/06/03 14:04:46;;;;;;;4.55;2.10;;;;;;;;;;5104743;28;20047;-69
2022/06/03 14:07:12;;;;;;;7.32;2.10;;;;;;;;;;5103838;28;20065;-69
2022/06/03 14:09:45;;;;;;;7.30;2.00;;;;;;;;;;5106425;28;20066;-69
2022/06/03 14:12:29;;;;;;;5.70;2.30;;;;;;;;;;5097532;28;20423;-69
2022/06/03 14:15:11;;;;;;;7.18;2.45;;;;;;;;;;5107256;28;20038;-68
2022/06/03 14:17:50;;;;;;;4.07;2.22;;;;;;;;;;5106737;28;20118;-69
2022/06/03 14:20:17;;;;;;;9.43;3.35;;;;;;;;;;5097059;28;20467;-69
2022/06/03 14:22:53;;;;;;;7.28;3.38;;;;;;;;;;5114070;28;20084;-68
2022/06/03 14:25:18;;;;;;;7.35;3.30;;;;;;;;;;5101465;28;20028;-68
2022/06/03 14:28:13;;;;;;;6.88;3.63;;;;;;;;;;5105475;28;20031;-69
2022/06/03 14:30:57;;;;;;;8.25;3.30;;;;;;;;;;5087212;28;20032;-68
2022/06/03 14:33:23;;;;;;;5.22;3.33;;;;;;;;;;5101649;28;20034;-68
2022/06/03 14:35:56;;;;;;;10.38;3.47;;;;;;;;;;5102606;28;20433;-69
2022/06/03 14:38:25;;;;;;;5.15;2.92;;;;;;;;;;5102124;28;20374;-69
2022/06/03 14:40:52;;;;;;;5.10;2.90;;;;;;;;;;5103572;28;20051;-69
2022/06/03 14:43:19;;;;;;;4.35;2.80;;;;;;;;;;5100753;28;20100;-69
2022/06/03 14:45:47;;;;;;;8.50;2.90;;;;;;;;;;5106581;28;20024;-69
2022/06/03 14:48:15;;;;;;;4.38;2.92;;;;;;;;;;5105697;28;20032;-69
2022/06/03 14:50:42;;;;;;;5.93;3.20;;;;;;;;;;5111747;28;20471;-69
2022/06/03 14:53:19;;;;;;;7.03;2.20;;;;;;;;;;5110823;28;20020;-69
2022/06/03 14:55:47;;;;;;;4.03;2.42;;;;;;;;;;5101260;28;20047;-69
2022/06/03 14:58:14;;;;;;;5.90;2.42;;;;;;;;;;5110324;28;20032;-69
2022/06/03 15:00:58;;;;;;;5.25;2.47;;;;;;;;;;5110182;28;20102;-69
2022/06/03 15:03:23;;;;;;;;;;;;;;;;;;5109667;28;20031;-69
2022/06/03 15:05:55;;;;;;;4.25;2.35;;;;;;;;;;5097594;28;19923;-68
2022/06/03 15:08:34;;;;;;;5.13;2.40;;;;;;;;;;5099628;28;20027;-68
2022/06/03 15:11:17;;;;;;;6.95;3.08;;;;;;;;;;5103071;28;20023;-68
2022/06/03 15:13:47;;;;;;;5.50;2.72;;;;;;;;;;5097957;28;20036;-68
2022/06/03 15:16:13;;;;;;;6.53;3.10;;;;;;;;;;5096290;28;20058;-69
2022/06/03 15:18:41;;;;;;;4.93;2.72;;;;;;;;;;5107250;28;20024;-68
2022/06/03 15:21:12;;;;;;;3.70;2.33;;;;;;;;;;5110623;28;20028;-68
2022/06/03 15:23:39;;;;;;;6.35;2.60;;;;;;;;;;5099083;28;20114;-70
2022/06/03 15:26:06;;;;;;;9.70;3.10;;;;;;;;;;5084608;28;20040;-69
2022/06/03 15:28:33;;;;;;;8.05;3.63;;;;;;;;;;5101356;28;20030;-68
2022/06/03 15:30:59;;;;;;;4.47;2.60;;;;;;;;;;5097243;28;20031;-68
2022/06/03 15:33:24;;;;;;;7.28;3.10;;;;;;;;;;5098815;28;20459;-69
2022/06/03 15:35:58;;;;;;;5.93;3.05;;;;;;;;;;5103557;28;20046;-69
2022/06/03 15:38:24;;;;;;;;;;;;;;;;;;5104600;28;20035;-68
2022/06/03 15:41:04;;;;;;;4.70;2.15;;;;;;;;;;5097929;28;19908;-69
2022/06/03 15:43:50;;;;;;;4.90;2.70;;;;;;;;;;5092292;28;20032;-68
2022/06/03 15:46:29;;;;;;;6.47;2.00;;;;;;;;;;5102275;28;20036;-69
2022/06/03 15:48:56;;;;;;;3.33;2.08;;;;;;;;;;5097715;28;20085;-69